createdAt,value
2022-09-20T00:03:36.129Z,11.69
2022-09-20T00:07:40.156Z,11.74
2022-09-20T00:11:43.013Z,11.73
2022-09-20T00:15:47.314Z,11.66
2022-09-20T00:19:50.130Z,11.61
2022-09-20T00:23:54.646Z,11.57
2022-09-20T00:27:57.404Z,11.56
2022-09-20T00:32:00.358Z,11.56
2022-09-20T00:36:03.738Z,11.53
2022-09-20T00:40:11.140Z,11.53
2022-09-20T00:44:42.636Z,11.51
2022-09-20T00:48:45.568Z,11.52
2022-09-20T00:52:52.473Z,11.47
2022-09-20T00:56:56.839Z,11.49
2022-09-20T01:01:00.341Z,11.53
2022-09-20T01:05:03.075Z,11.56
2022-09-20T01:09:07.770Z,11.56
2022-09-20T01:18:39.300Z,11.53
2022-09-20T01:23:13.117Z,11.58
2022-09-20T01:27:25.683Z,11.59
2022-09-20T01:31:34.527Z,11.62
2022-09-20T01:35:39.431Z,11.56
2022-09-20T01:39:53.303Z,11.53
2022-09-20T01:44:00.068Z,11.55
2022-09-20T01:48:13.318Z,11.50
2022-09-20T01:53:07.016Z,11.56
2022-09-20T01:57:39.013Z,11.59
2022-09-20T02:02:17.383Z,11.65
2022-09-20T02:06:42.002Z,11.65
2022-09-20T02:11:08.010Z,11.67
2022-09-20T02:15:25.616Z,11.63
2022-09-20T02:19:51.607Z,11.57
2022-09-20T02:24:05.885Z,11.49
2022-09-20T02:28:24.291Z,11.54
2022-09-20T02:32:44.534Z,11.42
2022-09-20T02:37:04.056Z,11.38
2022-09-20T02:41:33.596Z,11.39
2022-09-20T02:45:44.229Z,11.41
2022-09-20T02:49:57.128Z,11.36
2022-09-20T02:54:13.060Z,11.39
2022-09-20T02:58:29.400Z,11.36
2022-09-20T03:02:41.639Z,11.33
2022-09-20T03:06:51.869Z,11.29
2022-09-20T03:11:05.153Z,11.24
2022-09-20T03:15:22.767Z,11.25
2022-09-20T03:19:37.610Z,11.21
2022-09-20T03:23:55.635Z,11.21
2022-09-20T03:28:09.690Z,11.17
2022-09-20T03:32:27.776Z,11.19
2022-09-20T03:36:48.398Z,11.25
2022-09-20T03:41:23.455Z,11.30
2022-09-20T03:45:42.279Z,11.29
2022-09-20T03:50:24.297Z,11.29
2022-09-20T03:54:52.776Z,11.26
2022-09-20T03:59:08.177Z,11.24
2022-09-20T04:03:37.650Z,11.21
2022-09-20T04:07:54.892Z,11.20
2022-09-20T04:12:04.639Z,11.19
2022-09-20T04:16:27.090Z,11.17
2022-09-20T04:20:37.651Z,11.15
2022-09-20T04:24:51.242Z,11.22
2022-09-20T04:29:02.277Z,11.25
2022-09-20T04:33:12.931Z,11.25
2022-09-20T04:37:27.746Z,11.29
2022-09-20T04:41:54.076Z,11.26
2022-09-20T04:46:29.525Z,11.27
2022-09-20T04:51:03.333Z,11.17
2022-09-20T04:55:47.241Z,11.13
2022-09-20T05:00:04.154Z,11.11
2022-09-20T05:04:56.649Z,11.03
2022-09-20T05:09:25.462Z,11.02
2022-09-20T05:13:38.639Z,11.00
2022-09-20T05:18:04.034Z,10.96
2022-09-20T05:22:31.546Z,10.95
2022-09-20T05:26:47.482Z,11.04
2022-09-20T05:30:54.341Z,11.03
2022-09-20T05:35:05.802Z,10.94
2022-09-20T05:39:23.649Z,10.98
2022-09-20T05:43:32.801Z,10.94
2022-09-20T05:47:50.741Z,11.02
2022-09-20T05:52:08.466Z,11.08
2022-09-20T05:56:19.353Z,11.16
2022-09-20T06:00:29.158Z,11.20
2022-09-20T06:04:40.018Z,11.14
2022-09-20T06:09:05.040Z,11.16
2022-09-20T06:13:34.969Z,11.18
2022-09-20T06:17:43.665Z,11.25
2022-09-20T06:21:52.636Z,11.36
2022-09-20T06:26:00.920Z,11.38
2022-09-20T06:30:08.851Z,11.48
2022-09-20T06:34:16.600Z,11.54
2022-09-20T06:38:51.739Z,11.64
2022-09-20T06:42:56.062Z,11.67
2022-09-20T06:46:59.714Z,11.79
2022-09-20T06:51:02.906Z,11.99
2022-09-20T06:55:07.496Z,12.04
2022-09-20T06:59:12.281Z,12.13
2022-09-20T07:03:15.238Z,12.22
2022-09-20T07:07:19.257Z,12.35
2022-09-20T07:11:23.339Z,12.56
2022-09-20T07:15:28.411Z,12.73
2022-09-20T07:19:31.341Z,12.96
2022-09-20T07:23:34.062Z,13.11
2022-09-20T07:27:36.787Z,13.19
2022-09-20T07:31:40.936Z,12.98
2022-09-20T07:35:43.985Z,13.80
2022-09-20T07:39:46.929Z,14.56
2022-09-20T07:43:50.975Z,15.44
2022-09-20T07:47:59.614Z,16.07
2022-09-20T07:52:02.815Z,15.19
2022-09-20T07:56:07.915Z,15.24
2022-09-20T08:00:13.172Z,15.57
2022-09-20T08:04:17.408Z,15.33
2022-09-20T08:08:20.360Z,15.54
2022-09-20T08:16:48.346Z,15.22
2022-09-20T08:20:52.665Z,15.34
2022-09-20T08:24:55.492Z,17.32
2022-09-20T08:29:00.227Z,16.79
2022-09-20T08:33:07.138Z,17.32
2022-09-20T08:37:11.200Z,17.70
2022-09-20T08:41:16.869Z,17.46
2022-09-20T08:45:23.228Z,16.09
2022-09-20T08:49:36.829Z,17.18
2022-09-20T08:53:49.114Z,16.24
2022-09-20T08:57:55.140Z,17.86
2022-09-20T09:01:59.064Z,15.16
2022-09-20T09:06:04.143Z,15.74
2022-09-20T09:10:10.810Z,17.70
2022-09-20T09:14:36.099Z,16.71
2022-09-20T09:18:41.069Z,16.47
2022-09-20T09:22:46.332Z,16.41
2022-09-20T09:26:50.595Z,16.84
2022-09-20T09:30:54.228Z,17.97
2022-09-20T09:34:57.545Z,16.64
2022-09-20T09:39:24.545Z,16.19
2022-09-20T09:43:31.587Z,16.04
2022-09-20T09:47:38.529Z,15.98
2022-09-20T09:51:43.356Z,16.78
2022-09-20T09:56:02.659Z,17.22
2022-09-20T10:00:19.809Z,16.36
2022-09-20T10:04:36.417Z,16.36
2022-09-20T10:08:56.697Z,17.49
2022-09-20T10:13:11.966Z,17.91
2022-09-20T10:17:29.393Z,17.78
2022-09-20T10:21:44.146Z,18.39
2022-09-20T10:25:56.402Z,16.74
2022-09-20T10:30:09.077Z,16.37
2022-09-20T10:34:47.649Z,14.84
2022-09-20T10:38:58.337Z,14.80
2022-09-20T10:43:16.675Z,14.69
2022-09-20T10:47:22.442Z,14.72
2022-09-20T10:51:43.273Z,14.67
2022-09-20T10:55:53.103Z,14.46
2022-09-20T11:00:04.621Z,14.13
2022-09-20T11:04:33.090Z,14.02
2022-09-20T11:08:39.700Z,13.85
2022-09-20T11:12:50.892Z,13.84
2022-09-20T11:17:00.443Z,13.79
2022-09-20T11:21:10.129Z,13.60
2022-09-20T11:25:21.739Z,13.84
2022-09-20T11:29:32.757Z,14.13
2022-09-20T11:33:42.294Z,14.04
2022-09-20T11:37:50.843Z,14.28
2022-09-20T11:41:57.641Z,13.86
2022-09-20T11:46:04.896Z,13.38
2022-09-20T11:50:39.579Z,13.42
2022-09-20T11:55:13.196Z,12.87
2022-09-20T11:59:29.456Z,12.70
2022-09-20T12:03:37.517Z,12.68
2022-09-20T12:07:42.446Z,12.67
2022-09-20T12:11:45.259Z,12.67
2022-09-20T12:16:00.506Z,12.74
2022-09-20T12:20:03.238Z,12.92
2022-09-20T12:24:23.801Z,12.91
2022-09-20T12:28:34.292Z,13.11
2022-09-20T12:32:57.589Z,13.47
2022-09-20T12:37:24.397Z,14.13
2022-09-20T12:41:29.104Z,14.65
2022-09-20T12:45:32.185Z,15.41
2022-09-20T12:50:08.396Z,15.18
2022-09-20T12:54:14.610Z,15.88
2022-09-20T12:58:25.270Z,16.44
2022-09-20T13:03:01.222Z,15.87
2022-09-20T13:07:43.566Z,16.50
2022-09-20T13:11:52.532Z,16.84
2022-09-20T13:15:56.406Z,16.82
2022-09-20T13:20:00.346Z,17.42
2022-09-20T13:24:04.815Z,17.48
2022-09-20T13:28:20.465Z,16.43
2022-09-20T13:32:26.430Z,17.06
2022-09-20T13:36:31.880Z,16.78
2022-09-20T13:40:38.690Z,17.21
2022-09-20T13:44:44.529Z,17.17
2022-09-20T13:48:48.253Z,16.68
2022-09-20T13:52:52.911Z,16.65
2022-09-20T13:57:00.090Z,18.06
2022-09-20T14:01:07.367Z,19.39
2022-09-20T14:05:19.562Z,17.58
2022-09-20T14:09:29.017Z,16.91
2022-09-20T14:13:39.048Z,16.69
2022-09-20T14:17:42.201Z,16.16
2022-09-20T14:21:46.089Z,16.54
2022-09-20T14:26:06.956Z,16.68
2022-09-20T14:30:33.259Z,17.80
2022-09-20T14:34:37.562Z,19.24
2022-09-20T14:38:40.412Z,21.11
2022-09-20T14:42:46.818Z,20.42
2022-09-20T14:46:50.919Z,21.37
2022-09-20T14:51:26.881Z,19.65
2022-09-20T14:55:36.953Z,18.86
2022-09-20T14:59:44.287Z,18.40
2022-09-20T15:03:48.472Z,19.45
2022-09-20T15:07:51.609Z,19.12
2022-09-20T15:12:05.621Z,18.97
2022-09-20T15:16:08.589Z,18.31
2022-09-20T15:20:23.743Z,17.16
2022-09-20T15:24:28.418Z,18.27
2022-09-20T15:28:32.856Z,19.83
2022-09-20T15:32:35.578Z,19.32
2022-09-20T15:36:40.250Z,17.69
2022-09-20T15:40:43.960Z,16.86
2022-09-20T15:44:46.656Z,17.46
2022-09-20T15:48:49.642Z,18.35
2022-09-20T15:52:57.993Z,17.49
2022-09-20T15:57:04.119Z,17.72
2022-09-20T16:01:08.377Z,17.00
2022-09-20T16:05:12.317Z,16.68
2022-09-20T16:09:16.902Z,16.96
2022-09-20T16:13:19.796Z,17.10
2022-09-20T16:17:42.741Z,16.34
2022-09-20T16:21:51.313Z,17.47
2022-09-20T16:25:57.904Z,17.41
2022-09-20T16:30:00.888Z,16.80
2022-09-20T16:34:05.467Z,16.45
2022-09-20T16:38:10.413Z,16.60
2022-09-20T16:42:15.383Z,16.02
2022-09-20T16:46:20.480Z,16.05
2022-09-20T16:55:49.003Z,17.09
2022-09-20T16:59:56.384Z,17.29
2022-09-20T17:03:59.876Z,18.05
2022-09-20T17:08:03.022Z,16.98
2022-09-20T17:12:09.442Z,16.31
2022-09-20T17:16:16.270Z,15.85
2022-09-20T17:20:19.259Z,15.42
2022-09-20T17:24:25.270Z,14.97
2022-09-20T17:28:27.939Z,14.83
2022-09-20T17:32:31.998Z,14.49
2022-09-20T17:36:36.854Z,13.90
2022-09-20T17:40:39.743Z,13.68
2022-09-20T17:44:43.221Z,13.35
2022-09-20T17:48:49.047Z,13.13
2022-09-20T17:52:51.773Z,12.91
2022-09-20T17:56:56.551Z,12.73
2022-09-20T18:01:12.406Z,12.44
2022-09-20T18:05:16.836Z,12.24
2022-09-20T18:09:21.595Z,12.11
2022-09-20T18:13:24.617Z,11.81
2022-09-20T18:17:27.598Z,11.68
2022-09-20T18:21:33.704Z,11.64
2022-09-20T18:25:56.594Z,11.57
2022-09-20T18:29:59.627Z,11.60
2022-09-20T18:34:03.712Z,11.57
2022-09-20T18:38:08.304Z,11.50
2022-09-20T18:42:11.076Z,11.59
2022-09-20T18:46:13.999Z,11.75
2022-09-20T18:50:17.499Z,11.66
2022-09-20T18:54:21.860Z,11.26
2022-09-20T18:58:25.641Z,11.42
2022-09-20T19:02:52.221Z,11.24
2022-09-20T19:07:03.922Z,10.97
2022-09-20T19:11:13.638Z,10.84
2022-09-20T19:15:31.273Z,10.74
2022-09-20T19:19:48.721Z,10.48
2022-09-20T19:24:07.380Z,10.49
2022-09-20T19:28:13.899Z,10.61
2022-09-20T19:32:21.260Z,10.33
2022-09-20T19:36:24.797Z,10.24
2022-09-20T19:40:36.185Z,10.08
2022-09-20T19:44:51.186Z,10.11
2022-09-20T19:49:02.529Z,9.99
2022-09-20T19:53:06.333Z,9.85
2022-09-20T19:57:15.988Z,9.83
2022-09-20T20:01:21.548Z,9.70
2022-09-20T20:05:27.722Z,9.68
2022-09-20T20:09:39.961Z,9.56
2022-09-20T20:14:04.552Z,9.55
2022-09-20T20:18:20.646Z,9.45
2022-09-20T20:22:38.418Z,9.43
2022-09-20T20:26:42.041Z,9.41
2022-09-20T20:30:44.993Z,9.50
2022-09-20T20:34:49.203Z,9.46
2022-09-20T20:38:53.495Z,9.51
2022-09-20T20:43:02.531Z,9.32
2022-09-20T20:47:07.165Z,9.32
2022-09-20T20:51:13.592Z,9.15
2022-09-20T20:55:16.390Z,9.01
2022-09-20T20:59:19.103Z,9.01
2022-09-20T21:03:21.902Z,9.14
2022-09-20T21:07:25.984Z,8.95
2022-09-20T21:11:30.240Z,8.84
2022-09-20T21:15:33.127Z,8.83
2022-09-20T21:19:35.957Z,8.74
2022-09-20T21:23:40.202Z,8.71
2022-09-20T21:27:42.852Z,8.64
2022-09-20T21:31:47.326Z,8.62
2022-09-20T21:35:50.083Z,8.59
2022-09-20T21:39:54.684Z,8.50
2022-09-20T21:44:00.240Z,8.50
2022-09-20T21:48:05.423Z,8.43
2022-09-20T21:52:08.270Z,8.46
2022-09-20T21:56:13.976Z,8.31
2022-09-20T22:00:17.225Z,8.35
2022-09-20T22:04:20.017Z,8.28
2022-09-20T22:08:22.701Z,8.17
2022-09-20T22:12:26.850Z,8.04
2022-09-20T22:16:31.025Z,8.06
2022-09-20T22:20:33.864Z,8.02
2022-09-20T22:24:36.688Z,8.14
2022-09-20T22:28:41.406Z,8.13
2022-09-20T22:32:44.426Z,7.98
2022-09-20T22:36:47.640Z,8.00
2022-09-20T22:40:55.008Z,7.91
2022-09-20T22:44:59.678Z,7.96
2022-09-20T22:49:02.659Z,8.22
2022-09-20T22:53:05.478Z,8.19
2022-09-20T22:57:08.177Z,8.33
2022-09-20T23:01:14.341Z,8.07
2022-09-20T23:05:18.328Z,7.83
2022-09-20T23:09:21.608Z,7.81
2022-09-20T23:13:24.431Z,7.74
2022-09-20T23:17:28.473Z,7.66
2022-09-20T23:21:31.538Z,7.71
2022-09-20T23:25:34.370Z,7.79
2022-09-20T23:29:37.040Z,7.69
2022-09-20T23:33:46.512Z,7.55
2022-09-20T23:37:49.566Z,7.58
2022-09-20T23:41:52.401Z,7.54
2022-09-20T23:45:55.253Z,7.46
2022-09-20T23:49:59.315Z,7.58
2022-09-20T23:54:02.462Z,7.36
2022-09-20T23:58:05.843Z,7.41
